sensor_id;sensor_type;location;lat;lon;timestamp;pressure;altitude;pressure_sealevel;temperature;humidity
15050;BME280;7622;42.724;23.250;2023-08-31T00:01:54;94137.50;;;20.45;100.00
15050;BME280;7622;42.724;23.250;2023-08-31T00:04:21;94143.50;;;20.02;100.00
15050;BME280;7622;42.724;23.250;2023-08-31T00:06:48;94137.28;;;19.59;100.00
15050;BME280;7622;42.724;23.250;2023-08-31T00:09:14;94145.66;;;19.43;100.00
15050;BME280;7622;42.724;23.250;2023-08-31T00:11:41;94147.84;;;19.46;100.00
15050;BME280;7622;42.724;23.250;2023-08-31T00:14:08;94145.66;;;19.43;100.00
15050;BME280;7622;42.724;23.250;2023-08-31T00:16:36;94151.50;;;19.45;100.00
15050;BME280;7622;42.724;23.250;2023-08-31T00:19:03;94147.59;;;19.09;100.00
15050;BME280;7622;42.724;23.250;2023-08-31T00:21:30;94145.22;;;18.88;100.00
15050;BME280;7622;42.724;23.250;2023-08-31T00:23:57;94150.84;;;19.11;100.00
15050;BME280;7622;42.724;23.250;2023-08-31T00:26:23;94152.06;;;19.02;100.00
15050;BME280;7622;42.724;23.250;2023-08-31T00:28:50;94151.09;;;18.90;100.00
15050;BME280;7622;42.724;23.250;2023-08-31T00:31:17;94149.31;;;18.77;100.00
15050;BME280;7622;42.724;23.250;2023-08-31T00:33:45;94166.28;;;18.81;100.00
15050;BME280;7622;42.724;23.250;2023-08-31T00:36:12;94162.28;;;18.79;100.00
15050;BME280;7622;42.724;23.250;2023-08-31T00:38:38;94162.69;;;18.49;100.00
15050;BME280;7622;42.724;23.250;2023-08-31T00:41:06;94165.13;;;18.58;100.00
15050;BME280;7622;42.724;23.250;2023-08-31T00:43:32;94167.09;;;18.88;100.00
15050;BME280;7622;42.724;23.250;2023-08-31T00:46:00;94169.13;;;18.93;100.00
15050;BME280;7622;42.724;23.250;2023-08-31T00:48:27;94173.59;;;18.86;100.00
15050;BME280;7622;42.724;23.250;2023-08-31T00:50:55;94163.44;;;18.96;100.00
15050;BME280;7622;42.724;23.250;2023-08-31T00:53:22;94161.00;;;19.01;100.00
15050;BME280;7622;42.724;23.250;2023-08-31T00:55:49;94162.66;;;18.82;100.00
15050;BME280;7622;42.724;23.250;2023-08-31T00:58:16;94159.78;;;18.97;100.00
15050;BME280;7622;42.724;23.250;2023-08-31T01:00:48;94164.03;;;19.05;100.00
15050;BME280;7622;42.724;23.250;2023-08-31T01:03:25;94161.63;;;18.90;100.00
15050;BME280;7622;42.724;23.250;2023-08-31T01:06:01;94168.06;;;19.14;100.00
15050;BME280;7622;42.724;23.250;2023-08-31T01:08:39;94175.34;;;19.12;100.00
15050;BME280;7622;42.724;23.250;2023-08-31T01:11:14;94157.81;;;18.86;100.00
15050;BME280;7622;42.724;23.250;2023-08-31T01:13:51;94159.00;;;18.90;100.00
15050;BME280;7622;42.724;23.250;2023-08-31T01:16:18;94162.56;;;19.22;100.00
15050;BME280;7622;42.724;23.250;2023-08-31T01:18:46;94171.44;;;19.27;100.00
15050;BME280;7622;42.724;23.250;2023-08-31T01:21:21;94164.09;;;19.43;100.00
15050;BME280;7622;42.724;23.250;2023-08-31T01:23:53;94169.78;;;19.46;100.00
15050;BME280;7622;42.724;23.250;2023-08-31T01:26:21;94166.63;;;19.69;100.00
15050;BME280;7622;42.724;23.250;2023-08-31T01:28:48;94167.03;;;19.66;100.00
15050;BME280;7622;42.724;23.250;2023-08-31T01:31:15;94176.56;;;19.67;100.00
15050;BME280;7622;42.724;23.250;2023-08-31T01:33:42;94171.00;;;19.82;100.00
15050;BME280;7622;42.724;23.250;2023-08-31T01:36:14;94164.69;;;19.89;100.00
15050;BME280;7622;42.724;23.250;2023-08-31T01:38:45;94173.34;;;19.96;100.00
15050;BME280;7622;42.724;23.250;2023-08-31T01:41:17;94173.50;;;20.01;100.00
15050;BME280;7622;42.724;23.250;2023-08-31T01:43:46;94140.69;;;19.97;100.00
15050;BME280;7622;42.724;23.250;2023-08-31T01:46:15;94170.19;;;20.13;100.00
15050;BME280;7622;42.724;23.250;2023-08-31T01:48:42;94161.84;;;19.91;100.00
15050;BME280;7622;42.724;23.250;2023-08-31T01:51:09;94180.63;;;20.01;100.00
15050;BME280;7622;42.724;23.250;2023-08-31T01:53:36;94179.72;;;20.14;100.00
15050;BME280;7622;42.724;23.250;2023-08-31T01:56:04;94179.19;;;20.05;100.00
15050;BME280;7622;42.724;23.250;2023-08-31T01:58:32;94171.16;;;19.87;100.00
15050;BME280;7622;42.724;23.250;2023-08-31T02:00:59;94178.03;;;19.94;100.00
15050;BME280;7622;42.724;23.250;2023-08-31T02:03:26;94178.50;;;19.78;100.00
15050;BME280;7622;42.724;23.250;2023-08-31T02:05:53;94184.28;;;19.62;100.00
15050;BME280;7622;42.724;23.250;2023-08-31T02:08:19;94187.00;;;19.42;100.00
15050;BME280;7622;42.724;23.250;2023-08-31T02:10:46;94186.88;;;19.11;100.00
15050;BME280;7622;42.724;23.250;2023-08-31T02:13:14;94197.88;;;19.01;100.00
15050;BME280;7622;42.724;23.250;2023-08-31T02:15:42;94190.91;;;19.26;100.00
15050;BME280;7622;42.724;23.250;2023-08-31T02:18:09;94195.69;;;19.56;100.00
15050;BME280;7622;42.724;23.250;2023-08-31T02:20:36;94183.97;;;19.32;100.00
15050;BME280;7622;42.724;23.250;2023-08-31T02:23:03;94192.13;;;19.17;100.00
15050;BME280;7622;42.724;23.250;2023-08-31T02:25:30;94186.91;;;19.04;100.00
15050;BME280;7622;42.724;23.250;2023-08-31T02:27:57;94186.06;;;19.10;100.00
15050;BME280;7622;42.724;23.250;2023-08-31T02:30:24;94182.81;;;19.21;100.00
15050;BME280;7622;42.724;23.250;2023-08-31T02:32:52;94178.75;;;19.19;100.00
15050;BME280;7622;42.724;23.250;2023-08-31T02:35:18;94175.53;;;19.10;100.00
15050;BME280;7622;42.724;23.250;2023-08-31T02:37:45;94177.16;;;19.11;100.00
15050;BME280;7622;42.724;23.250;2023-08-31T02:40:12;94174.09;;;19.21;100.00
15050;BME280;7622;42.724;23.250;2023-08-31T02:42:39;94176.28;;;19.31;100.00
15050;BME280;7622;42.724;23.250;2023-08-31T02:45:06;94188.03;;;19.35;100.00
15050;BME280;7622;42.724;23.250;2023-08-31T02:47:33;94188.22;;;19.46;100.00
15050;BME280;7622;42.724;23.250;2023-08-31T02:50:01;94178.34;;;19.28;100.00
15050;BME280;7622;42.724;23.250;2023-08-31T02:52:28;94183.91;;;19.52;100.00
15050;BME280;7622;42.724;23.250;2023-08-31T02:54:55;94187.91;;;19.67;100.00
15050;BME280;7622;42.724;23.250;2023-08-31T02:57:21;94197.88;;;19.59;100.00
15050;BME280;7622;42.724;23.250;2023-08-31T02:59:51;94208.63;;;19.57;100.00
15050;BME280;7622;42.724;23.250;2023-08-31T03:02:18;94203.81;;;19.48;100.00
15050;BME280;7622;42.724;23.250;2023-08-31T03:04:45;94197.22;;;19.12;100.00
15050;BME280;7622;42.724;23.250;2023-08-31T03:07:13;94203.88;;;19.21;100.00
15050;BME280;7622;42.724;23.250;2023-08-31T03:09:40;94199.81;;;19.25;100.00
15050;BME280;7622;42.724;23.250;2023-08-31T03:12:07;94205.03;;;19.39;100.00
15050;BME280;7622;42.724;23.250;2023-08-31T03:14:34;94205.47;;;19.36;100.00
15050;BME280;7622;42.724;23.250;2023-08-31T03:17:01;94202.00;;;19.35;100.00
15050;BME280;7622;42.724;23.250;2023-08-31T03:19:27;94205.44;;;19.49;100.00
15050;BME280;7622;42.724;23.250;2023-08-31T03:21:54;94206.81;;;19.51;100.00
15050;BME280;7622;42.724;23.250;2023-08-31T03:24:22;94204.91;;;19.72;100.00
15050;BME280;7622;42.724;23.250;2023-08-31T03:26:49;94202.13;;;19.60;100.00
15050;BME280;7622;42.724;23.250;2023-08-31T03:29:16;94209.81;;;19.68;100.00
15050;BME280;7622;42.724;23.250;2023-08-31T03:31:42;94217.94;;;19.60;100.00
15050;BME280;7622;42.724;23.250;2023-08-31T03:34:09;94210.28;;;19.39;100.00
15050;BME280;7622;42.724;23.250;2023-08-31T03:36:36;94209.44;;;19.58;100.00
15050;BME280;7622;42.724;23.250;2023-08-31T03:39:03;94203.66;;;19.81;100.00
15050;BME280;7622;42.724;23.250;2023-08-31T03:41:31;94220.25;;;19.88;100.00
15050;BME280;7622;42.724;23.250;2023-08-31T03:43:58;94219.13;;;19.71;100.00
15050;BME280;7622;42.724;23.250;2023-08-31T03:46:25;94229.88;;;19.69;100.00
15050;BME280;7622;42.724;23.250;2023-08-31T03:48:52;94226.03;;;19.65;100.00
15050;BME280;7622;42.724;23.250;2023-08-31T03:51:19;94224.06;;;19.47;100.00
15050;BME280;7622;42.724;23.250;2023-08-31T03:53:46;94230.81;;;19.17;100.00
15050;BME280;7622;42.724;23.250;2023-08-31T03:56:13;94229.44;;;18.88;100.00
15050;BME280;7622;42.724;23.250;2023-08-31T03:58:41;94232.50;;;18.92;100.00
15050;BME280;7622;42.724;23.250;2023-08-31T04:01:08;94202.31;;;18.81;100.00
15050;BME280;7622;42.724;23.250;2023-08-31T04:03:35;94233.47;;;19.10;100.00
15050;BME280;7622;42.724;23.250;2023-08-31T04:06:02;94242.34;;;19.29;100.00
15050;BME280;7622;42.724;23.250;2023-08-31T04:08:30;94254.88;;;19.47;100.00
15050;BME280;7622;42.724;23.250;2023-08-31T04:10:57;94273.28;;;19.60;100.00
15050;BME280;7622;42.724;23.250;2023-08-31T04:13:24;94274.16;;;19.34;100.00
15050;BME280;7622;42.724;23.250;2023-08-31T04:15:52;94273.97;;;19.29;100.00
15050;BME280;7622;42.724;23.250;2023-08-31T04:18:20;94281.22;;;19.47;100.00
15050;BME280;7622;42.724;23.250;2023-08-31T04:20:49;94279.56;;;19.59;100.00
15050;BME280;7622;42.724;23.250;2023-08-31T04:23:18;94286.59;;;19.72;100.00
15050;BME280;7622;42.724;23.250;2023-08-31T04:25:46;94288.13;;;19.99;100.00
15050;BME280;7622;42.724;23.250;2023-08-31T04:28:12;94293.63;;;19.97;100.00
15050;BME280;7622;42.724;23.250;2023-08-31T04:30:39;94294.09;;;20.26;100.00
15050;BME280;7622;42.724;23.250;2023-08-31T04:33:08;94293.88;;;20.65;100.00
15050;BME280;7622;42.724;23.250;2023-08-31T04:35:34;94297.47;;;20.96;100.00
15050;BME280;7622;42.724;23.250;2023-08-31T04:38:01;94295.09;;;21.12;100.00
15050;BME280;7622;42.724;23.250;2023-08-31T04:40:28;94293.19;;;21.26;100.00
15050;BME280;7622;42.724;23.250;2023-08-31T04:42:55;94302.91;;;20.76;100.00
15050;BME280;7622;42.724;23.250;2023-08-31T04:45:22;94308.13;;;20.82;100.00
15050;BME280;7622;42.724;23.250;2023-08-31T04:47:49;94305.78;;;21.24;100.00
15050;BME280;7622;42.724;23.250;2023-08-31T04:50:18;94302.59;;;21.95;100.00
15050;BME280;7622;42.724;23.250;2023-08-31T04:52:44;94300.72;;;21.84;100.00
15050;BME280;7622;42.724;23.250;2023-08-31T04:55:12;94301.53;;;21.84;100.00
15050;BME280;7622;42.724;23.250;2023-08-31T04:57:40;94314.34;;;21.81;100.00
15050;BME280;7622;42.724;23.250;2023-08-31T05:00:07;94300.84;;;22.07;100.00
15050;BME280;7622;42.724;23.250;2023-08-31T05:02:35;94307.84;;;22.61;100.00
15050;BME280;7622;42.724;23.250;2023-08-31T05:05:02;94313.75;;;23.28;100.00
15050;BME280;7622;42.724;23.250;2023-08-31T05:07:31;94314.25;;;23.72;100.00
15050;BME280;7622;42.724;23.250;2023-08-31T05:09:57;94314.00;;;23.73;100.00
15050;BME280;7622;42.724;23.250;2023-08-31T05:12:24;94323.09;;;23.31;100.00
15050;BME280;7622;42.724;23.250;2023-08-31T05:14:51;94319.84;;;23.05;100.00
15050;BME280;7622;42.724;23.250;2023-08-31T05:17:17;94322.38;;;23.12;100.00
15050;BME280;7622;42.724;23.250;2023-08-31T05:19:44;94322.53;;;23.52;100.00
15050;BME280;7622;42.724;23.250;2023-08-31T05:22:12;94319.28;;;23.38;100.00
15050;BME280;7622;42.724;23.250;2023-08-31T05:24:40;94327.03;;;23.40;100.00
15050;BME280;7622;42.724;23.250;2023-08-31T05:27:07;94323.44;;;23.34;100.00
15050;BME280;7622;42.724;23.250;2023-08-31T05:29:34;94326.31;;;23.79;99.07
15050;BME280;7622;42.724;23.250;2023-08-31T05:32:01;94325.88;;;23.59;99.51
15050;BME280;7622;42.724;23.250;2023-08-31T05:34:28;94314.00;;;23.27;100.00
15050;BME280;7622;42.724;23.250;2023-08-31T05:36:55;94319.75;;;23.12;100.00
15050;BME280;7622;42.724;23.250;2023-08-31T05:39:22;94315.03;;;23.02;100.00
15050;BME280;7622;42.724;23.250;2023-08-31T05:41:50;94315.28;;;23.59;99.83
15050;BME280;7622;42.724;23.250;2023-08-31T05:44:17;94315.22;;;24.06;95.28
15050;BME280;7622;42.724;23.250;2023-08-31T05:46:44;94312.88;;;24.09;97.68
15050;BME280;7622;42.724;23.250;2023-08-31T05:49:11;94315.66;;;24.54;96.13
15050;BME280;7622;42.724;23.250;2023-08-31T05:51:38;94315.84;;;23.84;95.71
15050;BME280;7622;42.724;23.250;2023-08-31T05:54:05;94304.66;;;23.82;98.18
15050;BME280;7622;42.724;23.250;2023-08-31T05:56:35;94311.47;;;24.30;97.11
15050;BME280;7622;42.724;23.250;2023-08-31T05:59:04;94312.59;;;24.34;95.58
15050;BME280;7622;42.724;23.250;2023-08-31T06:01:31;94317.66;;;24.47;96.76
15050;BME280;7622;42.724;23.250;2023-08-31T06:03:58;94318.69;;;24.75;97.01
15050;BME280;7622;42.724;23.250;2023-08-31T06:06:24;94324.06;;;25.08;96.38
15050;BME280;7622;42.724;23.250;2023-08-31T06:08:51;94328.97;;;25.49;92.82
15050;BME280;7622;42.724;23.250;2023-08-31T06:11:19;94326.47;;;25.43;92.69
15050;BME280;7622;42.724;23.250;2023-08-31T06:13:46;94329.69;;;25.62;92.27
15050;BME280;7622;42.724;23.250;2023-08-31T06:16:15;94318.72;;;25.75;88.82
15050;BME280;7622;42.724;23.250;2023-08-31T06:18:41;94347.56;;;25.83;89.54
15050;BME280;7622;42.724;23.250;2023-08-31T06:21:09;94341.31;;;25.72;88.17
15050;BME280;7622;42.724;23.250;2023-08-31T06:23:36;94354.09;;;25.92;90.26
15050;BME280;7622;42.724;23.250;2023-08-31T06:26:03;94350.69;;;25.97;nan
15050;BME280;7622;42.724;23.250;2023-08-31T06:28:30;94341.22;;;26.06;89.73
15050;BME280;7622;42.724;23.250;2023-08-31T06:30:56;94345.75;;;26.05;86.21
15050;BME280;7622;42.724;23.250;2023-08-31T06:33:24;94357.03;;;26.12;80.95
15050;BME280;7622;42.724;23.250;2023-08-31T06:35:51;94359.41;;;26.31;82.15
15050;BME280;7622;42.724;23.250;2023-08-31T06:38:18;94362.69;;;26.59;78.89
15050;BME280;7622;42.724;23.250;2023-08-31T06:40:46;94370.03;;;26.74;76.69
15050;BME280;7622;42.724;23.250;2023-08-31T06:43:12;94367.56;;;26.89;72.99
15050;BME280;7622;42.724;23.250;2023-08-31T06:45:39;94379.16;;;27.32;69.66
15050;BME280;7622;42.724;23.250;2023-08-31T06:48:06;94377.16;;;27.17;68.13
15050;BME280;7622;42.724;23.250;2023-08-31T06:50:35;94381.22;;;27.25;64.24
15050;BME280;7622;42.724;23.250;2023-08-31T06:53:02;94367.16;;;27.02;66.19
15050;BME280;7622;42.724;23.250;2023-08-31T06:55:29;94375.81;;;27.15;64.28
15050;BME280;7622;42.724;23.250;2023-08-31T06:57:57;94378.91;;;27.33;66.58
15050;BME280;7622;42.724;23.250;2023-08-31T07:00:24;94376.84;;;27.45;64.22
15050;BME280;7622;42.724;23.250;2023-08-31T07:02:50;94385.47;;;27.85;64.21
15050;BME280;7622;42.724;23.250;2023-08-31T07:05:18;94382.94;;;28.10;60.95
15050;BME280;7622;42.724;23.250;2023-08-31T07:07:52;94376.44;;;28.38;58.78
15050;BME280;7622;42.724;23.250;2023-08-31T07:10:19;94373.72;;;28.28;58.11
15050;BME280;7622;42.724;23.250;2023-08-31T07:12:46;94384.75;;;28.41;59.33
15050;BME280;7622;42.724;23.250;2023-08-31T07:15:13;94386.41;;;28.52;56.61
15050;BME280;7622;42.724;23.250;2023-08-31T07:17:40;94385.03;;;28.45;56.05
15050;BME280;7622;42.724;23.250;2023-08-31T07:20:07;94389.53;;;29.12;54.52
15050;BME280;7622;42.724;23.250;2023-08-31T07:22:35;94389.00;;;29.10;54.44
15050;BME280;7622;42.724;23.250;2023-08-31T07:25:03;94397.31;;;29.23;55.78
15050;BME280;7622;42.724;23.250;2023-08-31T07:27:31;94384.53;;;28.58;58.18
15050;BME280;7622;42.724;23.250;2023-08-31T07:29:58;94390.34;;;29.12;56.43
15050;BME280;7622;42.724;23.250;2023-08-31T07:32:25;94387.91;;;28.90;55.86
15050;BME280;7622;42.724;23.250;2023-08-31T07:34:51;94369.31;;;28.64;57.02
15050;BME280;7622;42.724;23.250;2023-08-31T07:37:18;94393.06;;;29.53;55.45
15050;BME280;7622;42.724;23.250;2023-08-31T07:39:45;94401.91;;;29.73;52.84
15050;BME280;7622;42.724;23.250;2023-08-31T07:42:13;94397.63;;;29.67;52.51
15050;BME280;7622;42.724;23.250;2023-08-31T07:44:40;94398.44;;;29.78;52.41
15050;BME280;7622;42.724;23.250;2023-08-31T07:47:07;94392.00;;;29.84;52.41
15050;BME280;7622;42.724;23.250;2023-08-31T07:49:34;94398.41;;;30.19;51.43
15050;BME280;7622;42.724;23.250;2023-08-31T07:52:00;94402.16;;;30.18;50.84
15050;BME280;7622;42.724;23.250;2023-08-31T07:54:28;94399.94;;;30.60;49.00
15050;BME280;7622;42.724;23.250;2023-08-31T07:56:55;94395.44;;;31.05;48.06
15050;BME280;7622;42.724;23.250;2023-08-31T07:59:23;94403.91;;;31.27;46.82
15050;BME280;7622;42.724;23.250;2023-08-31T08:01:50;94404.66;;;30.83;47.93
15050;BME280;7622;42.724;23.250;2023-08-31T08:04:16;94410.13;;;30.53;49.44
15050;BME280;7622;42.724;23.250;2023-08-31T08:06:45;94398.06;;;31.15;47.97
15050;BME280;7622;42.724;23.250;2023-08-31T08:09:11;94406.84;;;30.71;46.67
15050;BME280;7622;42.724;23.250;2023-08-31T08:11:40;94398.53;;;30.73;45.59
15050;BME280;7622;42.724;23.250;2023-08-31T08:14:07;94399.91;;;30.70;45.06
15050;BME280;7622;42.724;23.250;2023-08-31T08:16:35;94406.94;;;30.56;45.84
15050;BME280;7622;42.724;23.250;2023-08-31T08:19:02;94397.53;;;30.53;44.95
15050;BME280;7622;42.724;23.250;2023-08-31T08:21:29;94408.50;;;30.62;45.51
15050;BME280;7622;42.724;23.250;2023-08-31T08:23:56;94395.16;;;30.42;43.45
15050;BME280;7622;42.724;23.250;2023-08-31T08:26:22;94398.69;;;30.91;41.39
15050;BME280;7622;42.724;23.250;2023-08-31T08:28:49;94399.78;;;31.40;39.62
15050;BME280;7622;42.724;23.250;2023-08-31T08:31:16;94398.41;;;30.29;39.52
15050;BME280;7622;42.724;23.250;2023-08-31T08:33:44;94340.03;;;29.19;42.16
15050;BME280;7622;42.724;23.250;2023-08-31T08:36:11;94397.81;;;30.37;45.46
15050;BME280;7622;42.724;23.250;2023-08-31T08:38:38;94379.50;;;30.69;46.93
15050;BME280;7622;42.724;23.250;2023-08-31T08:41:05;94392.34;;;31.32;46.24
15050;BME280;7622;42.724;23.250;2023-08-31T08:43:33;94407.41;;;31.66;44.48
15050;BME280;7622;42.724;23.250;2023-08-31T08:46:04;94405.09;;;31.50;43.73
15050;BME280;7622;42.724;23.250;2023-08-31T08:48:34;94401.78;;;31.24;43.25
15050;BME280;7622;42.724;23.250;2023-08-31T08:51:02;94398.59;;;31.90;40.87
15050;BME280;7622;42.724;23.250;2023-08-31T08:53:30;94401.28;;;32.47;37.24
15050;BME280;7622;42.724;23.250;2023-08-31T08:55:56;94399.03;;;32.02;37.74
15050;BME280;7622;42.724;23.250;2023-08-31T08:58:23;94400.53;;;31.50;38.02
15050;BME280;7622;42.724;23.250;2023-08-31T09:00:52;94408.88;;;32.17;36.70
15050;BME280;7622;42.724;23.250;2023-08-31T09:03:20;94406.69;;;32.71;36.44
15050;BME280;7622;42.724;23.250;2023-08-31T09:05:47;94399.00;;;32.07;36.53
15050;BME280;7622;42.724;23.250;2023-08-31T09:08:15;94394.50;;;31.68;37.25
15050;BME280;7622;42.724;23.250;2023-08-31T09:10:43;94398.00;;;31.98;36.59
15050;BME280;7622;42.724;23.250;2023-08-31T09:13:12;94393.69;;;31.68;37.29
15050;BME280;7622;42.724;23.250;2023-08-31T09:15:40;94399.31;;;31.72;37.04
15050;BME280;7622;42.724;23.250;2023-08-31T09:18:07;94394.44;;;32.02;36.18
15050;BME280;7622;42.724;23.250;2023-08-31T09:20:43;94384.91;;;32.20;35.86
15050;BME280;7622;42.724;23.250;2023-08-31T09:23:10;94392.31;;;30.82;37.66
15050;BME280;7622;42.724;23.250;2023-08-31T09:25:42;94391.94;;;30.40;37.95
15050;BME280;7622;42.724;23.250;2023-08-31T09:28:10;94392.22;;;31.03;37.73
15050;BME280;7622;42.724;23.250;2023-08-31T09:30:38;94399.50;;;31.41;37.37
15050;BME280;7622;42.724;23.250;2023-08-31T09:33:06;94382.25;;;31.13;37.49
15050;BME280;7622;42.724;23.250;2023-08-31T09:35:34;94399.22;;;31.82;36.51
15050;BME280;7622;42.724;23.250;2023-08-31T09:38:07;94403.13;;;32.28;35.68
15050;BME280;7622;42.724;23.250;2023-08-31T09:40:35;94397.84;;;32.66;35.13
15050;BME280;7622;42.724;23.250;2023-08-31T09:43:03;94389.63;;;32.81;34.71
15050;BME280;7622;42.724;23.250;2023-08-31T09:45:31;94398.34;;;32.92;33.96
15050;BME280;7622;42.724;23.250;2023-08-31T09:47:59;94388.66;;;33.33;32.80
15050;BME280;7622;42.724;23.250;2023-08-31T09:50:27;94390.13;;;33.26;33.10
15050;BME280;7622;42.724;23.250;2023-08-31T09:52:55;94395.44;;;32.64;34.25
15050;BME280;7622;42.724;23.250;2023-08-31T09:55:25;94390.94;;;32.07;35.43
15050;BME280;7622;42.724;23.250;2023-08-31T09:57:56;94354.78;;;32.66;34.53
15050;BME280;7622;42.724;23.250;2023-08-31T10:00:25;94388.88;;;33.37;33.38
15050;BME280;7622;42.724;23.250;2023-08-31T10:02:53;94389.22;;;33.49;33.11
15050;BME280;7622;42.724;23.250;2023-08-31T10:05:21;94386.97;;;33.18;33.43
15050;BME280;7622;42.724;23.250;2023-08-31T10:07:48;94377.59;;;33.53;31.89
15050;BME280;7622;42.724;23.250;2023-08-31T10:10:15;94392.75;;;33.31;31.97
15050;BME280;7622;42.724;23.250;2023-08-31T10:12:44;94393.19;;;33.38;31.41
15050;BME280;7622;42.724;23.250;2023-08-31T10:15:12;94389.34;;;33.01;32.53
15050;BME280;7622;42.724;23.250;2023-08-31T10:17:41;94377.94;;;32.43;33.25
15050;BME280;7622;42.724;23.250;2023-08-31T10:20:10;94386.59;;;32.64;33.18
15050;BME280;7622;42.724;23.250;2023-08-31T10:22:37;94386.72;;;32.96;33.40
15050;BME280;7622;42.724;23.250;2023-08-31T10:25:05;94381.47;;;32.38;34.48
15050;BME280;7622;42.724;23.250;2023-08-31T10:27:36;94386.75;;;32.49;34.08
15050;BME280;7622;42.724;23.250;2023-08-31T10:30:15;94374.66;;;31.93;34.60
15050;BME280;7622;42.724;23.250;2023-08-31T10:32:43;94381.66;;;31.60;35.39
15050;BME280;7622;42.724;23.250;2023-08-31T10:35:10;94387.38;;;31.05;36.89
15050;BME280;7622;42.724;23.250;2023-08-31T10:37:39;94385.69;;;30.65;37.66
15050;BME280;7622;42.724;23.250;2023-08-31T10:40:07;94395.69;;;30.34;38.08
15050;BME280;7622;42.724;23.250;2023-08-31T10:42:41;94400.03;;;30.09;39.17
15050;BME280;7622;42.724;23.250;2023-08-31T10:45:09;94393.34;;;29.82;39.32
15050;BME280;7622;42.724;23.250;2023-08-31T10:47:37;94390.34;;;29.07;40.28
15050;BME280;7622;42.724;23.250;2023-08-31T10:50:19;94391.38;;;28.96;40.60
15050;BME280;7622;42.724;23.250;2023-08-31T10:52:46;94398.66;;;29.16;40.48
15050;BME280;7622;42.724;23.250;2023-08-31T10:55:13;94342.06;;;28.67;40.74
15050;BME280;7622;42.724;23.250;2023-08-31T10:57:40;94394.81;;;28.81;41.26
15050;BME280;7622;42.724;23.250;2023-08-31T11:00:08;94404.06;;;29.92;39.52
15050;BME280;7622;42.724;23.250;2023-08-31T11:02:36;94400.22;;;30.53;38.31
15050;BME280;7622;42.724;23.250;2023-08-31T11:05:08;94389.66;;;30.77;37.64
15050;BME280;7622;42.724;23.250;2023-08-31T11:07:37;94399.72;;;31.01;37.56
15050;BME280;7622;42.724;23.250;2023-08-31T11:10:15;94404.06;;;31.46;36.80
15050;BME280;7622;42.724;23.250;2023-08-31T11:12:44;94409.69;;;32.12;36.08
15050;BME280;7622;42.724;23.250;2023-08-31T11:15:12;94395.44;;;31.83;36.50
15050;BME280;7622;42.724;23.250;2023-08-31T11:17:40;94409.06;;;31.57;36.87
15050;BME280;7622;42.724;23.250;2023-08-31T11:20:08;94411.91;;;32.05;36.21
15050;BME280;7622;42.724;23.250;2023-08-31T11:22:40;94408.31;;;31.47;36.90
15050;BME280;7622;42.724;23.250;2023-08-31T11:25:08;94405.13;;;31.45;37.30
15050;BME280;7622;42.724;23.250;2023-08-31T11:27:36;94402.91;;;30.53;38.89
15050;BME280;7622;42.724;23.250;2023-08-31T11:30:12;94403.53;;;29.74;41.49
15050;BME280;7622;42.724;23.250;2023-08-31T11:32:45;94405.28;;;28.93;44.33
15050;BME280;7622;42.724;23.250;2023-08-31T11:35:12;94399.53;;;28.64;45.05
15050;BME280;7622;42.724;23.250;2023-08-31T11:37:41;94398.25;;;28.77;46.58
15050;BME280;7622;42.724;23.250;2023-08-31T11:40:09;94404.88;;;29.42;45.50
15050;BME280;7622;42.724;23.250;2023-08-31T11:42:36;94407.00;;;29.60;44.44
15050;BME280;7622;42.724;23.250;2023-08-31T11:45:05;94408.88;;;29.74;43.91
15050;BME280;7622;42.724;23.250;2023-08-31T11:47:32;94412.91;;;30.07;43.26
15050;BME280;7622;42.724;23.250;2023-08-31T11:50:00;94411.81;;;30.29;42.25
15050;BME280;7622;42.724;23.250;2023-08-31T11:52:30;94399.25;;;30.04;42.54
15050;BME280;7622;42.724;23.250;2023-08-31T11:54:58;94400.84;;;30.10;43.01
15050;BME280;7622;42.724;23.250;2023-08-31T11:57:26;94385.59;;;29.55;43.09
15050;BME280;7622;42.724;23.250;2023-08-31T11:59:54;94392.56;;;29.51;43.73
15050;BME280;7622;42.724;23.250;2023-08-31T12:02:21;94384.00;;;29.59;44.29
15050;BME280;7622;42.724;23.250;2023-08-31T12:04:48;94383.69;;;29.40;44.24
15050;BME280;7622;42.724;23.250;2023-08-31T12:07:16;94383.66;;;29.20;44.71
15050;BME280;7622;42.724;23.250;2023-08-31T12:09:43;94367.00;;;28.82;44.86
15050;BME280;7622;42.724;23.250;2023-08-31T12:12:13;94368.25;;;28.59;45.80
15050;BME280;7622;42.724;23.250;2023-08-31T12:14:40;94376.53;;;28.63;46.42
15050;BME280;7622;42.724;23.250;2023-08-31T12:17:08;94383.38;;;29.01;46.16
15050;BME280;7622;42.724;23.250;2023-08-31T12:19:37;94380.19;;;29.19;45.13
15050;BME280;7622;42.724;23.250;2023-08-31T12:22:04;94376.16;;;29.02;45.29
15050;BME280;7622;42.724;23.250;2023-08-31T12:24:37;94376.97;;;29.12;44.74
15050;BME280;7622;42.724;23.250;2023-08-31T12:27:04;94374.28;;;29.02;44.94
15050;BME280;7622;42.724;23.250;2023-08-31T12:29:33;94376.72;;;29.29;44.24
15050;BME280;7622;42.724;23.250;2023-08-31T12:32:00;94374.00;;;29.19;43.13
15050;BME280;7622;42.724;23.250;2023-08-31T12:34:27;94375.88;;;29.18;43.51
15050;BME280;7622;42.724;23.250;2023-08-31T12:36:54;94377.53;;;29.40;43.16
15050;BME280;7622;42.724;23.250;2023-08-31T12:39:25;94375.69;;;29.40;41.67
15050;BME280;7622;42.724;23.250;2023-08-31T12:41:51;94382.84;;;29.14;42.30
15050;BME280;7622;42.724;23.250;2023-08-31T12:44:18;94376.47;;;29.61;41.95
15050;BME280;7622;42.724;23.250;2023-08-31T12:46:48;94366.31;;;29.58;41.66
15050;BME280;7622;42.724;23.250;2023-08-31T12:49:18;94368.72;;;29.69;42.02
15050;BME280;7622;42.724;23.250;2023-08-31T12:51:47;94370.06;;;29.77;42.07
15050;BME280;7622;42.724;23.250;2023-08-31T12:54:16;94378.91;;;29.62;42.05
15050;BME280;7622;42.724;23.250;2023-08-31T12:56:42;94378.63;;;29.84;42.12
15050;BME280;7622;42.724;23.250;2023-08-31T12:59:09;94370.31;;;29.70;41.76